Time;durP1;ratioP1;P1;durP2;ratioP2;P2;SDS_P1;SDS_P2;PMS_P1;PMS_P2;Temp;Humidity;BMP_temperature;BMP_pressure;BME280_temperature;BME280_humidity;BME280_pressure;Samples;Min_cycle;Max_cycle;Signal;HPM_P1;HPM_P2
2021/07/01 00:00:55;;;;;;;24.20;16.17;;;;;;;;;;5071871;28;20488;-50
2021/07/01 00:03:21;;;;;;;18.77;14.73;;;;;;;;;;5070144;28;20462;-50
2021/07/01 00:05:47;;;;;;;22.33;16.67;;;;;;;;;;5071649;28;20854;-50
2021/07/01 00:08:13;;;;;;;24.50;15.87;;;;;;;;;;5071644;28;20400;-49
2021/07/01 00:10:40;;;;;;;25.50;17.50;;;;;;;;;;5071598;28;20403;-50
2021/07/01 00:13:06;;;;;;;22.97;16.27;;;;;;;;;;5071852;28;20390;-49
2021/07/01 00:15:33;;;;;;;22.90;16.90;;;;;;;;;;5071410;28;20428;-49
2021/07/01 00:17:59;;;;;;;18.27;15.57;;;;;;;;;;5071363;28;20382;-50
2021/07/01 00:20:25;;;;;;;19.87;15.60;;;;;;;;;;5071446;28;20787;-50
2021/07/01 00:22:52;;;;;;;20.77;15.30;;;;;;;;;;5071226;28;20496;-50
2021/07/01 00:25:18;;;;;;;25.80;15.43;;;;;;;;;;5070911;28;20803;-50
2021/07/01 00:27:45;;;;;;;24.07;15.53;;;;;;;;;;5071337;28;20387;-49
2021/07/01 00:30:11;;;;;;;25.27;17.10;;;;;;;;;;5071205;28;20406;-50
2021/07/01 00:32:37;;;;;;;23.03;16.57;;;;;;;;;;5070843;28;20404;-50
2021/07/01 00:35:04;;;;;;;31.73;16.53;;;;;;;;;;5070751;28;20411;-50
2021/07/01 00:37:32;;;;;;;22.60;16.57;;;;;;;;;;5071073;28;20387;-51
2021/07/01 00:39:58;;;;;;;22.40;15.93;;;;;;;;;;5070964;28;20383;-50
2021/07/01 00:42:24;;;;;;;24.47;16.13;;;;;;;;;;5071070;28;20420;-50
2021/07/01 00:44:50;;;;;;;20.23;15.00;;;;;;;;;;5070555;28;20823;-51
2021/07/01 00:47:16;;;;;;;30.37;16.20;;;;;;;;;;5070962;28;20426;-50
2021/07/01 00:49:43;;;;;;;25.20;15.63;;;;;;;;;;5070918;28;20567;-50
2021/07/01 00:52:09;;;;;;;23.87;16.70;;;;;;;;;;5071074;28;20404;-50
2021/07/01 00:54:35;;;;;;;24.10;16.07;;;;;;;;;;5070428;28;20423;-50
2021/07/01 00:57:01;;;;;;;27.50;17.17;;;;;;;;;;5070827;28;20383;-50
2021/07/01 00:59:27;;;;;;;20.87;16.30;;;;;;;;;;5070806;28;20847;-50
2021/07/01 01:01:53;;;;;;;21.97;16.93;;;;;;;;;;5070716;28;20411;-50
2021/07/01 01:04:19;;;;;;;30.10;17.90;;;;;;;;;;5070316;28;20508;-50
2021/07/01 01:06:45;;;;;;;28.00;17.30;;;;;;;;;;5070828;28;20432;-50
2021/07/01 01:09:11;;;;;;;29.10;18.30;;;;;;;;;;5070656;28;20375;-50
2021/07/01 01:11:38;;;;;;;25.87;16.27;;;;;;;;;;5070797;28;20766;-51
2021/07/01 01:14:04;;;;;;;25.80;16.30;;;;;;;;;;5070480;28;20422;-50
2021/07/01 01:16:30;;;;;;;26.20;17.73;;;;;;;;;;5070610;28;20911;-52
2021/07/01 01:18:56;;;;;;;26.17;18.20;;;;;;;;;;5070706;28;20379;-50
2021/07/01 01:21:24;;;;;;;30.90;18.73;;;;;;;;;;5070564;28;20401;-50
2021/07/01 01:23:50;;;;;;;26.73;19.07;;;;;;;;;;5070747;28;20458;-50
2021/07/01 01:26:16;;;;;;;31.57;19.13;;;;;;;;;;5070584;28;20400;-51
2021/07/01 01:28:42;;;;;;;30.87;20.97;;;;;;;;;;5070553;28;20889;-51
2021/07/01 01:31:08;;;;;;;24.27;18.57;;;;;;;;;;5070675;28;20403;-51
2021/07/01 01:33:34;;;;;;;31.60;18.37;;;;;;;;;;5070147;28;20415;-52
2021/07/01 01:36:00;;;;;;;32.10;20.37;;;;;;;;;;5070187;28;20418;-51
2021/07/01 01:38:26;;;;;;;28.57;19.47;;;;;;;;;;5070256;28;20381;-51
2021/07/01 01:40:52;;;;;;;33.00;20.43;;;;;;;;;;5070370;28;20438;-50
2021/07/01 01:43:19;;;;;;;32.70;21.47;;;;;;;;;;5070260;28;21047;-50
2021/07/01 01:45:47;;;;;;;32.37;21.27;;;;;;;;;;5072421;28;20397;-49
2021/07/01 01:48:13;;;;;;;32.43;20.67;;;;;;;;;;5074355;28;20390;-51
2021/07/01 01:50:40;;;;;;;32.80;23.40;;;;;;;;;;5074178;28;20831;-50
2021/07/01 01:53:06;;;;;;;34.63;22.60;;;;;;;;;;5074249;28;20439;-50
2021/07/01 01:55:32;;;;;;;34.13;21.97;;;;;;;;;;5073845;28;20420;-50
2021/07/01 01:57:58;;;;;;;37.70;22.10;;;;;;;;;;5074175;28;20450;-52
2021/07/01 02:00:25;;;;;;;35.27;23.37;;;;;;;;;;5074101;28;20432;-52
2021/07/01 02:02:51;;;;;;;37.10;23.73;;;;;;;;;;5073841;28;20411;-50
2021/07/01 02:05:17;;;;;;;36.53;22.10;;;;;;;;;;5073693;28;20402;-50
2021/07/01 02:07:43;;;;;;;53.07;22.53;;;;;;;;;;5073842;28;20458;-51
2021/07/01 02:10:17;;;;;;;33.17;22.23;;;;;;;;;;5073900;28;20822;-50
2021/07/01 02:12:43;;;;;;;29.50;20.00;;;;;;;;;;5073791;28;20383;-51
2021/07/01 02:15:10;;;;;;;30.27;21.37;;;;;;;;;;5073442;28;20427;-50
2021/07/01 02:17:37;;;;;;;30.00;20.90;;;;;;;;;;5073729;28;20445;-49
2021/07/01 02:20:07;;;;;;;29.60;20.30;;;;;;;;;;5073639;28;20402;-50
2021/07/01 02:22:33;;;;;;;32.83;20.63;;;;;;;;;;5073611;28;20499;-50
2021/07/01 02:24:59;;;;;;;29.13;19.53;;;;;;;;;;5073435;28;20942;-50
2021/07/01 02:27:25;;;;;;;26.97;19.40;;;;;;;;;;5073465;28;20853;-51
2021/07/01 02:29:51;;;;;;;26.47;19.83;;;;;;;;;;5073562;28;20406;-51
2021/07/01 02:32:17;;;;;;;27.87;19.90;;;;;;;;;;5073427;28;20403;-51
2021/07/01 02:34:43;;;;;;;27.20;19.27;;;;;;;;;;5073085;28;20480;-52
2021/07/01 02:37:10;;;;;;;35.97;21.47;;;;;;;;;;5073306;28;20436;-52
2021/07/01 02:39:36;;;;;;;28.07;21.13;;;;;;;;;;5073382;28;20494;-50
2021/07/01 02:42:03;;;;;;;35.23;20.93;;;;;;;;;;5073488;28;20375;-50
2021/07/01 02:44:29;;;;;;;36.83;21.70;;;;;;;;;;5072866;28;20460;-49
2021/07/01 02:46:55;;;;;;;34.30;21.80;;;;;;;;;;5073330;28;20888;-50
2021/07/01 02:49:21;;;;;;;32.07;21.97;;;;;;;;;;5073114;28;20374;-50
2021/07/01 02:51:47;;;;;;;34.87;22.40;;;;;;;;;;5073310;28;20742;-49
2021/07/01 02:54:13;;;;;;;28.17;19.90;;;;;;;;;;5072866;28;20422;-49
2021/07/01 02:56:42;;;;;;;30.43;20.53;;;;;;;;;;5072755;28;20418;-50
2021/07/01 02:59:08;;;;;;;33.70;20.67;;;;;;;;;;5073026;28;20378;-50
2021/07/01 03:01:35;;;;;;;33.80;20.77;;;;;;;;;;5072970;28;20449;-51
2021/07/01 03:04:01;;;;;;;26.70;19.37;;;;;;;;;;5073139;28;20444;-49
2021/07/01 03:06:27;;;;;;;32.33;18.47;;;;;;;;;;5073191;28;20407;-50
2021/07/01 03:08:54;;;;;;;29.53;18.37;;;;;;;;;;5071758;28;20440;-50
2021/07/01 03:11:20;;;;;;;26.13;18.87;;;;;;;;;;5073252;28;20408;-52
2021/07/01 03:13:46;;;;;;;31.07;18.70;;;;;;;;;;5072426;28;20908;-51
2021/07/01 03:16:19;;;;;;;30.13;17.83;;;;;;;;;;5072662;28;20394;-50
2021/07/01 03:18:48;;;;;;;31.40;20.27;;;;;;;;;;5073005;28;20499;-50
2021/07/01 03:21:15;;;;;;;28.60;18.97;;;;;;;;;;5072726;28;20397;-50
2021/07/01 03:23:41;;;;;;;28.63;19.00;;;;;;;;;;5072105;28;20972;-50
2021/07/01 03:26:07;;;;;;;24.37;17.50;;;;;;;;;;5072569;28;20939;-50
2021/07/01 03:28:33;;;;;;;27.13;19.60;;;;;;;;;;5072438;28;20367;-50
2021/07/01 03:30:59;;;;;;;25.03;18.20;;;;;;;;;;5072333;28;21204;-51
2021/07/01 03:33:25;;;;;;;24.77;17.90;;;;;;;;;;5072110;28;20422;-51
2021/07/01 03:35:51;;;;;;;32.90;19.17;;;;;;;;;;5072115;28;20425;-50
2021/07/01 03:38:17;;;;;;;26.50;18.40;;;;;;;;;;5072183;28;20382;-50
2021/07/01 03:40:43;;;;;;;26.50;19.47;;;;;;;;;;5072232;28;20473;-50
2021/07/01 03:43:09;;;;;;;27.07;18.83;;;;;;;;;;5072103;28;20460;-50
2021/07/01 03:45:35;;;;;;;27.43;19.43;;;;;;;;;;5071746;28;20428;-51
2021/07/01 03:48:01;;;;;;;27.53;19.10;;;;;;;;;;5072137;28;20404;-52
2021/07/01 03:50:27;;;;;;;32.17;18.83;;;;;;;;;;5072006;28;20902;-50
2021/07/01 03:52:53;;;;;;;31.73;20.00;;;;;;;;;;5072055;28;20901;-50
2021/07/01 03:55:19;;;;;;;29.53;20.03;;;;;;;;;;5071480;28;20522;-50
2021/07/01 03:57:45;;;;;;;30.70;19.40;;;;;;;;;;5071909;28;20401;-50
2021/07/01 04:00:12;;;;;;;31.33;21.03;;;;;;;;;;5071648;28;20407;-50
2021/07/01 04:02:38;;;;;;;26.67;19.20;;;;;;;;;;5071735;28;20403;-50
2021/07/01 04:05:04;;;;;;;29.07;19.03;;;;;;;;;;5071381;28;20512;-50
2021/07/01 04:07:30;;;;;;;27.63;19.30;;;;;;;;;;5071225;28;20374;-50
2021/07/01 04:09:56;;;;;;;26.50;19.03;;;;;;;;;;5071594;28;20422;-50
2021/07/01 04:12:22;;;;;;;27.10;18.47;;;;;;;;;;5071538;28;20924;-50
2021/07/01 04:14:48;;;;;;;26.97;16.83;;;;;;;;;;5071327;28;20425;-50
2021/07/01 04:17:14;;;;;;;22.87;16.57;;;;;;;;;;5071696;28;20415;-50
2021/07/01 04:19:40;;;;;;;24.87;16.57;;;;;;;;;;5071618;28;20651;-50
2021/07/01 04:22:06;;;;;;;25.23;15.80;;;;;;;;;;5071514;28;20386;-50
2021/07/01 04:24:32;;;;;;;19.20;15.20;;;;;;;;;;5070947;28;20456;-50
2021/07/01 04:26:58;;;;;;;19.70;15.73;;;;;;;;;;5071346;28;20425;-51
2021/07/01 04:29:24;;;;;;;20.53;13.97;;;;;;;;;;5071322;28;20892;-52
2021/07/01 04:31:50;;;;;;;17.07;13.80;;;;;;;;;;5071283;28;20818;-50
2021/07/01 04:34:16;;;;;;;18.70;14.60;;;;;;;;;;5070989;28;20494;-50
2021/07/01 04:36:42;;;;;;;20.90;14.50;;;;;;;;;;5071391;28;20407;-50
2021/07/01 04:39:08;;;;;;;20.90;15.83;;;;;;;;;;5071552;28;20414;-50
2021/07/01 04:41:34;;;;;;;24.67;15.50;;;;;;;;;;5071205;28;20404;-50
2021/07/01 04:44:00;;;;;;;19.77;16.00;;;;;;;;;;5070820;28;20462;-50
2021/07/01 04:46:26;;;;;;;22.70;15.77;;;;;;;;;;5071174;28;20373;-49
2021/07/01 04:48:53;;;;;;;25.63;16.53;;;;;;;;;;5069850;28;20480;-49
2021/07/01 04:51:19;;;;;;;20.80;15.43;;;;;;;;;;5071006;28;20432;-51
2021/07/01 04:53:45;;;;;;;22.63;14.00;;;;;;;;;;5070691;28;20775;-53
2021/07/01 04:56:11;;;;;;;22.27;14.50;;;;;;;;;;5070813;28;20887;-51
2021/07/01 04:58:37;;;;;;;21.87;14.70;;;;;;;;;;5069448;28;20896;-52
2021/07/01 05:01:03;;;;;;;24.77;14.97;;;;;;;;;;5070765;28;20442;-51
2021/07/01 05:03:29;;;;;;;20.33;14.50;;;;;;;;;;5070687;28;20459;-50
2021/07/01 05:05:55;;;;;;;24.60;15.87;;;;;;;;;;5070467;28;20423;-50
2021/07/01 05:08:21;;;;;;;23.87;16.93;;;;;;;;;;5070714;28;20465;-51
2021/07/01 05:10:47;;;;;;;31.13;19.57;;;;;;;;;;5070613;28;20408;-50
2021/07/01 05:13:13;;;;;;;31.17;21.40;;;;;;;;;;5070522;28;20406;-50
2021/07/01 05:15:39;;;;;;;32.93;20.90;;;;;;;;;;5070389;28;20805;-50
2021/07/01 05:18:05;;;;;;;27.90;20.77;;;;;;;;;;5070381;28;20375;-50
2021/07/01 05:20:31;;;;;;;34.57;23.90;;;;;;;;;;5069111;28;20466;-50
2021/07/01 05:22:57;;;;;;;34.70;23.57;;;;;;;;;;5070396;28;20497;-50
2021/07/01 05:25:23;;;;;;;32.27;23.57;;;;;;;;;;5069007;28;20517;-50
2021/07/01 05:27:49;;;;;;;35.70;24.53;;;;;;;;;;5069063;28;20409;-50
2021/07/01 05:30:15;;;;;;;28.93;21.47;;;;;;;;;;5070800;28;20407;-51
2021/07/01 05:32:41;;;;;;;25.07;21.43;;;;;;;;;;5070337;28;20882;-50
2021/07/01 05:35:08;;;;;;;27.23;21.07;;;;;;;;;;5069936;28;20488;-51
2021/07/01 05:37:34;;;;;;;22.93;19.17;;;;;;;;;;5070855;28;20460;-52
2021/07/01 05:40:00;;;;;;;19.30;17.00;;;;;;;;;;5070285;28;20400;-52
2021/07/01 05:42:26;;;;;;;20.60;16.00;;;;;;;;;;5070272;28;20443;-51
2021/07/01 05:44:52;;;;;;;22.00;15.90;;;;;;;;;;5070018;28;20493;-51
2021/07/01 05:47:18;;;;;;;21.90;15.70;;;;;;;;;;5070534;28;20403;-51
2021/07/01 05:49:44;;;;;;;19.63;15.33;;;;;;;;;;5070296;28;20407;-51
2021/07/01 05:52:11;;;;;;;17.17;14.30;;;;;;;;;;5070512;28;20453;-51
2021/07/01 05:54:41;;;;;;;17.40;12.93;;;;;;;;;;5069841;28;20434;-51
2021/07/01 05:57:07;;;;;;;14.43;11.63;;;;;;;;;;5070473;28;20497;-51
2021/07/01 05:59:33;;;;;;;12.57;10.50;;;;;;;;;;5070191;28;20911;-51
2021/07/01 06:01:59;;;;;;;14.00;10.13;;;;;;;;;;5070255;28;20918;-51
2021/07/01 06:04:25;;;;;;;15.20;10.00;;;;;;;;;;5069624;28;20449;-51
2021/07/01 06:06:52;;;;;;;14.37;9.80;;;;;;;;;;5070132;28;20379;-51
2021/07/01 06:09:23;;;;;;;12.90;11.60;;;;;;;;;;5070057;28;20392;-52
2021/07/01 06:11:53;;;;;;;18.17;15.07;;;;;;;;;;5070097;28;20472;-51
2021/07/01 06:14:19;;;;;;;26.43;19.43;;;;;;;;;;5070043;28;20919;-51
2021/07/01 06:16:45;;;;;;;40.27;22.40;;;;;;;;;;5070136;28;20773;-51
2021/07/01 06:19:11;;;;;;;27.87;22.13;;;;;;;;;;5070055;28;20465;-51
2021/07/01 06:21:37;;;;;;;25.40;21.03;;;;;;;;;;5070060;28;20382;-51
2021/07/01 06:24:03;;;;;;;29.00;23.07;;;;;;;;;;5069761;28;20945;-51
2021/07/01 06:26:30;;;;;;;30.10;22.90;;;;;;;;;;5070153;28;20404;-52
2021/07/01 06:28:57;;;;;;;25.70;21.87;;;;;;;;;;5070158;28;20403;-51
2021/07/01 06:31:23;;;;;;;35.27;23.07;;;;;;;;;;5071640;28;20400;-51
2021/07/01 06:33:49;;;;;;;31.80;21.00;;;;;;;;;;5073455;28;20478;-53
2021/07/01 06:36:17;;;;;;;27.60;22.30;;;;;;;;;;5073453;28;20900;-52
2021/07/01 06:38:46;;;;;;;37.33;24.80;;;;;;;;;;5073524;28;20799;-51
2021/07/01 06:41:14;;;;;;;38.87;22.83;;;;;;;;;;5073278;28;20407;-51
2021/07/01 06:43:40;;;;;;;34.10;22.43;;;;;;;;;;5073120;28;20538;-51
2021/07/01 06:46:06;;;;;;;32.80;22.70;;;;;;;;;;5073251;28;20897;-51
2021/07/01 06:48:33;;;;;;;37.70;23.73;;;;;;;;;;5073335;28;20409;-51
2021/07/01 06:50:59;;;;;;;44.80;22.70;;;;;;;;;;5073020;28;20374;-51
2021/07/01 06:53:26;;;;;;;29.80;21.77;;;;;;;;;;5073163;28;20970;-52
2021/07/01 06:55:52;;;;;;;30.90;21.23;;;;;;;;;;5072809;28;20416;-51
2021/07/01 06:58:19;;;;;;;26.83;17.83;;;;;;;;;;5072828;28;20777;-51
2021/07/01 07:00:45;;;;;;;25.30;16.33;;;;;;;;;;5072043;28;20992;-50
2021/07/01 07:03:18;;;;;;;18.47;14.03;;;;;;;;;;5072855;28;20946;-51
2021/07/01 07:05:51;;;;;;;24.70;17.40;;;;;;;;;;5072640;28;20415;-51
2021/07/01 07:08:17;;;;;;;26.13;18.30;;;;;;;;;;5072968;28;20411;-51
2021/07/01 07:10:44;;;;;;;30.10;20.60;;;;;;;;;;5072745;28;20403;-51
2021/07/01 07:13:11;;;;;;;36.47;23.70;;;;;;;;;;5072849;28;20403;-51
2021/07/01 07:15:38;;;;;;;31.10;22.77;;;;;;;;;;5072471;28;20789;-51
2021/07/01 07:18:15;;;;;;;39.00;25.53;;;;;;;;;;5072629;28;20848;-51
2021/07/01 07:20:43;;;;;;;41.80;24.40;;;;;;;;;;5072687;28;20867;-51
2021/07/01 07:23:09;;;;;;;36.33;24.17;;;;;;;;;;5072519;28;20922;-51
2021/07/01 07:25:39;;;;;;;29.70;23.73;;;;;;;;;;5072265;28;20434;-52
2021/07/01 07:28:06;;;;;;;33.13;24.47;;;;;;;;;;5072443;28;20422;-51
2021/07/01 07:30:33;;;;;;;36.67;23.27;;;;;;;;;;5072447;28;20397;-52
2021/07/01 07:33:01;;;;;;;32.20;21.80;;;;;;;;;;5072191;28;20374;-51
2021/07/01 07:35:27;;;;;;;34.30;23.20;;;;;;;;;;5072073;28;20450;-52
2021/07/01 07:37:53;;;;;;;26.17;22.77;;;;;;;;;;5072196;28;20817;-51
2021/07/01 07:40:19;;;;;;;30.80;23.33;;;;;;;;;;5072333;28;20408;-51
2021/07/01 07:42:45;;;;;;;33.30;22.20;;;;;;;;;;5072091;28;20408;-51
2021/07/01 07:45:12;;;;;;;34.63;21.67;;;;;;;;;;5071831;28;20460;-51
2021/07/01 07:47:38;;;;;;;30.33;21.77;;;;;;;;;;5072111;28;20400;-52
2021/07/01 07:50:05;;;;;;;30.10;21.20;;;;;;;;;;5072099;28;20907;-54
2021/07/01 07:52:31;;;;;;;23.63;20.17;;;;;;;;;;5071974;28;20408;-51
2021/07/01 07:54:58;;;;;;;33.33;21.77;;;;;;;;;;5071511;28;20788;-51
2021/07/01 07:57:28;;;;;;;25.30;20.40;;;;;;;;;;5071665;28;20463;-52
2021/07/01 07:59:55;;;;;;;24.70;19.80;;;;;;;;;;5070409;28;20412;-51
2021/07/01 08:02:24;;;;;;;25.53;19.33;;;;;;;;;;5070605;28;20818;-51
2021/07/01 08:04:50;;;;;;;21.17;18.43;;;;;;;;;;5071410;28;20555;-51
2021/07/01 08:07:17;;;;;;;23.67;16.30;;;;;;;;;;5071964;28;20404;-51
2021/07/01 08:09:43;;;;;;;20.33;17.07;;;;;;;;;;5071699;28;20405;-52
2021/07/01 08:12:09;;;;;;;19.83;16.37;;;;;;;;;;5071482;28;20491;-51
2021/07/01 08:14:41;;;;;;;23.17;15.97;;;;;;;;;;5069950;28;20521;-52
2021/07/01 08:17:07;;;;;;;18.37;14.57;;;;;;;;;;5071529;28;20402;-52
2021/07/01 08:19:36;;;;;;;24.43;16.03;;;;;;;;;;5071519;28;20440;-52
2021/07/01 08:22:03;;;;;;;17.30;15.07;;;;;;;;;;5071593;28;20497;-51
2021/07/01 08:24:30;;;;;;;22.20;16.50;;;;;;;;;;5074730;28;20433;-51
2021/07/01 08:26:56;;;;;;;23.63;16.90;;;;;;;;;;5081712;28;20421;-51
2021/07/01 08:29:22;;;;;;;26.23;15.20;;;;;;;;;;5072104;28;20407;-51
2021/07/01 08:31:49;;;;;;;25.40;16.97;;;;;;;;;;5084437;28;20523;-51
2021/07/01 08:34:18;;;;;;;19.63;16.87;;;;;;;;;;5091985;28;20439;-52
2021/07/01 08:36:45;;;;;;;32.87;17.40;;;;;;;;;;5092583;28;20381;-51
2021/07/01 08:39:11;;;;;;;31.20;18.07;;;;;;;;;;5090541;28;20411;-51
2021/07/01 08:41:41;;;;;;;27.40;18.77;;;;;;;;;;5091615;28;20374;-51
2021/07/01 08:44:10;;;;;;;28.50;18.53;;;;;;;;;;5091048;28;20526;-51
2021/07/01 08:46:56;;;;;;;33.37;18.57;;;;;;;;;;5091263;28;20485;-52
2021/07/01 08:49:32;;;;;;;30.23;19.63;;;;;;;;;;5080589;28;20420;-52
2021/07/01 08:52:00;;;;;;;27.20;19.27;;;;;;;;;;5091458;28;20408;-51
2021/07/01 08:54:31;;;;;;;25.87;19.27;;;;;;;;;;5090304;28;21085;-52
2021/07/01 08:56:58;;;;;;;25.13;17.73;;;;;;;;;;5091260;28;20393;-51
2021/07/01 08:59:25;;;;;;;26.70;19.50;;;;;;;;;;5090844;28;20410;-52
2021/07/01 09:01:56;;;;;;;31.43;20.63;;;;;;;;;;5102534;28;20413;-51
2021/07/01 09:04:24;;;;;;;34.37;19.27;;;;;;;;;;5110924;28;20985;-51
2021/07/01 09:06:57;;;;;;;27.43;19.20;;;;;;;;;;5111251;28;20551;-51
2021/07/01 09:09:28;;;;;;;22.87;18.00;;;;;;;;;;5109942;28;20384;-51
2021/07/01 09:11:54;;;;;;;26.80;16.00;;;;;;;;;;5110687;28;20421;-51
2021/07/01 09:14:21;;;;;;;26.13;16.83;;;;;;;;;;5110398;28;20426;-51
2021/07/01 09:16:47;;;;;;;26.60;16.50;;;;;;;;;;5110100;28;20926;-52
2021/07/01 09:19:16;;;;;;;22.67;15.03;;;;;;;;;;5107266;28;20467;-51
2021/07/01 09:21:43;;;;;;;28.53;17.23;;;;;;;;;;5090028;28;20393;-51
2021/07/01 09:24:14;;;;;;;23.30;18.37;;;;;;;;;;5090183;28;20458;-51
2021/07/01 09:26:42;;;;;;;22.10;17.80;;;;;;;;;;5090778;28;20476;-51
2021/07/01 09:29:08;;;;;;;25.67;19.80;;;;;;;;;;5091385;28;20377;-51
2021/07/01 09:31:35;;;;;;;26.83;18.67;;;;;;;;;;5089779;28;20402;-51
2021/07/01 09:34:02;;;;;;;23.70;17.77;;;;;;;;;;5089127;28;20949;-51
2021/07/01 09:36:28;;;;;;;24.23;17.60;;;;;;;;;;5089858;28;20415;-51
2021/07/01 09:38:56;;;;;;;23.17;17.10;;;;;;;;;;5089595;28;20376;-51
2021/07/01 09:41:23;;;;;;;24.30;18.00;;;;;;;;;;5090934;28;20396;-51
2021/07/01 09:43:50;;;;;;;24.00;18.57;;;;;;;;;;5089156;28;20820;-51
2021/07/01 09:46:18;;;;;;;22.40;16.27;;;;;;;;;;5090266;28;20415;-51
2021/07/01 09:48:45;;;;;;;24.17;17.00;;;;;;;;;;5090511;28;20455;-51
2021/07/01 09:51:11;;;;;;;22.40;17.40;;;;;;;;;;5089531;28;20471;-52
2021/07/01 09:53:38;;;;;;;25.70;17.27;;;;;;;;;;5090141;28;20427;-52
2021/07/01 09:56:05;;;;;;;20.67;16.10;;;;;;;;;;5091344;28;20400;-51
2021/07/01 09:58:32;;;;;;;26.00;17.53;;;;;;;;;;5090595;28;20479;-51
2021/07/01 10:00:58;;;;;;;19.57;16.10;;;;;;;;;;5090916;28;20374;-54
2021/07/01 10:03:24;;;;;;;26.27;17.93;;;;;;;;;;5089472;28;20449;-51
2021/07/01 10:05:50;;;;;;;24.93;16.47;;;;;;;;;;5090965;28;20476;-51
2021/07/01 10:08:17;;;;;;;24.00;18.50;;;;;;;;;;5095057;28;20370;-52
2021/07/01 10:10:50;;;;;;;22.33;17.30;;;;;;;;;;5094481;28;20440;-51
2021/07/01 10:13:17;;;;;;;27.20;17.20;;;;;;;;;;5094491;28;20373;-51
2021/07/01 10:15:43;;;;;;;23.10;17.50;;;;;;;;;;5094092;28;20423;-52
2021/07/01 10:18:16;;;;;;;21.17;16.00;;;;;;;;;;5094276;28;20426;-52
2021/07/01 10:20:43;;;;;;;23.23;18.93;;;;;;;;;;5094085;28;20439;-51
2021/07/01 10:23:36;;;;;;;22.50;16.10;;;;;;;;;;5093913;28;20394;-52
2021/07/01 10:26:16;;;;;;;25.03;16.33;;;;;;;;;;5091557;28;20443;-52
2021/07/01 10:28:56;;;;;;;27.07;19.67;;;;;;;;;;5093787;28;20374;-51
2021/07/01 10:31:22;;;;;;;23.83;17.13;;;;;;;;;;5093985;28;20433;-52
2021/07/01 10:33:48;;;;;;;24.23;18.00;;;;;;;;;;5092026;28;20423;-52
2021/07/01 10:36:15;;;;;;;22.03;16.83;;;;;;;;;;5093838;28;20415;-52
2021/07/01 10:38:41;;;;;;;27.10;19.43;;;;;;;;;;5092635;28;20443;-51
2021/07/01 10:41:07;;;;;;;23.70;17.17;;;;;;;;;;5093847;28;20415;-51
2021/07/01 10:43:44;;;;;;;23.77;18.87;;;;;;;;;;5093593;28;20453;-53
2021/07/01 10:46:10;;;;;;;26.07;19.77;;;;;;;;;;5092374;28;20416;-52
2021/07/01 10:48:36;;;;;;;25.17;19.00;;;;;;;;;;5093520;28;20561;-53
2021/07/01 10:51:05;;;;;;;21.17;17.50;;;;;;;;;;5093621;28;20378;-52
2021/07/01 10:53:35;;;;;;;21.03;15.87;;;;;;;;;;5093457;28;20401;-52
2021/07/01 10:56:03;;;;;;;19.90;15.43;;;;;;;;;;5093366;28;20374;-51
2021/07/01 10:58:30;;;;;;;20.40;15.33;;;;;;;;;;5093474;28;20457;-52
2021/07/01 11:00:57;;;;;;;22.83;16.40;;;;;;;;;;5092972;28;20958;-52
2021/07/01 11:03:28;;;;;;;23.07;15.33;;;;;;;;;;5093096;28;20477;-52
2021/07/01 11:05:54;;;;;;;16.37;13.30;;;;;;;;;;5092956;28;20396;-52
2021/07/01 11:08:23;;;;;;;19.20;12.93;;;;;;;;;;5091831;28;20451;-51
2021/07/01 11:10:50;;;;;;;20.87;12.13;;;;;;;;;;5092036;28;20403;-52
2021/07/01 11:13:16;;;;;;;14.70;11.60;;;;;;;;;;5093008;28;20375;-51
2021/07/01 11:16:01;;;;;;;16.03;11.60;;;;;;;;;;5092797;28;20472;-51
2021/07/01 11:18:38;;;;;;;14.90;11.20;;;;;;;;;;5092750;28;20745;-52
2021/07/01 11:21:10;;;;;;;13.10;11.20;;;;;;;;;;5093037;28;20494;-52
2021/07/01 11:23:36;;;;;;;13.30;10.10;;;;;;;;;;5092745;28;20935;-51
2021/07/01 11:26:03;;;;;;;13.20;10.30;;;;;;;;;;5092716;28;20917;-52
2021/07/01 11:28:29;;;;;;;15.80;10.20;;;;;;;;;;5093037;28;20371;-51
2021/07/01 11:30:59;;;;;;;14.07;10.23;;;;;;;;;;5091512;28;20918;-52
2021/07/01 11:33:26;;;;;;;13.50;9.93;;;;;;;;;;5092719;28;20390;-52
2021/07/01 11:36:08;;;;;;;14.30;11.27;;;;;;;;;;5092388;28;20398;-52
2021/07/01 11:38:34;;;;;;;15.00;13.13;;;;;;;;;;5092743;28;20968;-52
2021/07/01 11:41:03;;;;;;;17.73;15.20;;;;;;;;;;5092784;28;20897;-52
2021/07/01 11:43:29;;;;;;;16.87;14.60;;;;;;;;;;5091354;28;20459;-52
2021/07/01 11:45:56;;;;;;;20.43;16.97;;;;;;;;;;5093234;28;20427;-52
2021/07/01 11:48:23;;;;;;;22.40;17.03;;;;;;;;;;5093276;28;20370;-52
2021/07/01 11:50:51;;;;;;;19.50;17.40;;;;;;;;;;5093285;28;20378;-52
2021/07/01 11:53:17;;;;;;;21.07;17.40;;;;;;;;;;5093022;28;20419;-52
2021/07/01 11:55:44;;;;;;;18.93;16.83;;;;;;;;;;5093369;28;20420;-51
2021/07/01 11:58:11;;;;;;;22.63;16.83;;;;;;;;;;5093881;28;20397;-52
2021/07/01 12:00:37;;;;;;;19.37;17.23;;;;;;;;;;5093587;28;20374;-52
2021/07/01 12:03:04;;;;;;;20.27;17.17;;;;;;;;;;5093035;28;20380;-51
2021/07/01 12:05:31;;;;;;;22.63;16.60;;;;;;;;;;5092155;28;20509;-53
2021/07/01 12:07:58;;;;;;;30.13;18.00;;;;;;;;;;5092109;28;20502;-51
2021/07/01 12:10:25;;;;;;;20.70;18.13;;;;;;;;;;5092267;28;20452;-52
2021/07/01 12:12:51;;;;;;;20.77;17.87;;;;;;;;;;5091971;28;20819;-52
2021/07/01 12:15:17;;;;;;;29.73;18.60;;;;;;;;;;5091652;28;20393;-52
2021/07/01 12:17:50;;;;;;;23.70;19.17;;;;;;;;;;5091861;28;20462;-52
2021/07/01 12:20:29;;;;;;;19.00;15.77;;;;;;;;;;5091892;28;20972;-51
2021/07/01 12:22:55;;;;;;;19.37;16.73;;;;;;;;;;5091867;28;20800;-53
2021/07/01 12:25:27;;;;;;;21.70;18.17;;;;;;;;;;5091205;28;20465;-52
2021/07/01 12:28:09;;;;;;;18.83;16.30;;;;;;;;;;5091522;28;20401;-52
2021/07/01 12:30:57;;;;;;;20.80;18.10;;;;;;;;;;5091274;28;20371;-53
2021/07/01 12:33:45;;;;;;;20.77;16.63;;;;;;;;;;5091394;28;20383;-52
2021/07/01 12:36:21;;;;;;;21.87;15.20;;;;;;;;;;5092637;28;20362;-51
2021/07/01 12:39:06;;;;;;;17.43;14.70;;;;;;;;;;5091789;28;20532;-52
2021/07/01 12:41:37;;;;;;;15.93;13.73;;;;;;;;;;5091653;28;20420;-52
2021/07/01 12:44:04;;;;;;;14.90;12.10;;;;;;;;;;5090963;28;20456;-52
2021/07/01 12:46:42;;;;;;;14.37;12.70;;;;;;;;;;5091552;28;20495;-52
2021/07/01 12:49:32;;;;;;;12.80;11.57;;;;;;;;;;5091546;28;20372;-51
2021/07/01 12:51:59;;;;;;;12.77;10.37;;;;;;;;;;5091353;28;20383;-52
2021/07/01 12:54:25;;;;;;;11.40;10.20;;;;;;;;;;5100019;28;20513;-53
2021/07/01 12:56:52;;;;;;;10.83;7.73;;;;;;;;;;5111945;28;20395;-52
2021/07/01 12:59:18;;;;;;;7.97;7.03;;;;;;;;;;5111948;28;20380;-52
2021/07/01 13:01:44;;;;;;;10.90;7.87;;;;;;;;;;5111993;28;20430;-52
2021/07/01 13:04:10;;;;;;;8.60;7.80;;;;;;;;;;5111863;28;20868;-51
2021/07/01 13:06:40;;;;;;;9.17;8.30;;;;;;;;;;5112110;28;20395;-51
2021/07/01 13:09:06;;;;;;;11.47;8.87;;;;;;;;;;5110251;28;20434;-50
2021/07/01 13:11:45;;;;;;;9.00;8.10;;;;;;;;;;5111170;28;20396;-50
2021/07/01 13:14:17;;;;;;;8.13;7.33;;;;;;;;;;5109568;28;20433;-50
2021/07/01 13:16:45;;;;;;;9.23;8.37;;;;;;;;;;5111235;28;20455;-50
2021/07/01 13:19:23;;;;;;;11.87;10.63;;;;;;;;;;5111255;28;20427;-50
2021/07/01 13:21:50;;;;;;;13.27;11.13;;;;;;;;;;5111256;28;20870;-50
2021/07/01 13:24:19;;;;;;;11.17;10.07;;;;;;;;;;5111385;28;20453;-52
2021/07/01 13:26:46;;;;;;;14.53;11.70;;;;;;;;;;5111086;28;20546;-51
2021/07/01 13:29:12;;;;;;;13.80;10.83;;;;;;;;;;5111141;28;20394;-55
2021/07/01 13:31:38;;;;;;;13.23;10.77;;;;;;;;;;5111558;28;20906;-50
2021/07/01 13:34:07;;;;;;;12.90;11.53;;;;;;;;;;5109715;28;20457;-54
2021/07/01 13:36:33;;;;;;;13.00;11.70;;;;;;;;;;5111451;28;20413;-50
2021/07/01 13:38:59;;;;;;;14.37;12.00;;;;;;;;;;5111186;28;20376;-50
2021/07/01 13:41:29;;;;;;;13.47;12.07;;;;;;;;;;5114958;28;20479;-50
2021/07/01 13:43:55;;;;;;;13.33;12.00;;;;;;;;;;5114777;28;20496;-51
2021/07/01 13:46:21;;;;;;;13.30;12.00;;;;;;;;;;5115141;28;20425;-52
2021/07/01 13:48:46;;;;;;;11.60;10.47;;;;;;;;;;5114808;28;20402;-51
2021/07/01 13:51:14;;;;;;;13.60;11.00;;;;;;;;;;5114975;28;20385;-52
2021/07/01 13:53:44;;;;;;;13.50;11.77;;;;;;;;;;5114682;28;20402;-55
2021/07/01 13:56:11;;;;;;;10.63;9.60;;;;;;;;;;5114982;28;20406;-50
2021/07/01 13:58:38;;;;;;;10.40;9.20;;;;;;;;;;5113683;28;20382;-50
2021/07/01 14:01:05;;;;;;;10.00;9.00;;;;;;;;;;5114698;28;20399;-50
2021/07/01 14:03:33;;;;;;;8.40;7.37;;;;;;;;;;5114702;28;20488;-51
2021/07/01 14:06:03;;;;;;;9.27;7.40;;;;;;;;;;5114379;28;20457;-50
2021/07/01 14:08:29;;;;;;;7.90;7.20;;;;;;;;;;5115131;28;20469;-50
2021/07/01 14:10:58;;;;;;;8.30;7.50;;;;;;;;;;5115219;28;21044;-52
2021/07/01 14:13:24;;;;;;;10.80;7.40;;;;;;;;;;5115433;28;20394;-51
2021/07/01 14:15:51;;;;;;;10.60;8.37;;;;;;;;;;5114333;28;20886;-52
2021/07/01 14:18:17;;;;;;;10.83;8.10;;;;;;;;;;5113483;28;20402;-51
2021/07/01 14:20:43;;;;;;;12.40;8.90;;;;;;;;;;5114577;28;20490;-51